Blu 470 — ZHBX8 — position and weather

sailwx.info

Track history (hours):
 
Tides and Currents Weather Stations Pressure Air Temp Water Temp Dewpoint Dewpoint Depression Visibility Wind Speed Wind Dir Waves Ship Positions

Blu 470

Last reported at 2017-Sep-16 01:35 UTC. Time now 2017-Sep-21 09:05 UTC.
Position N 42°51' E 004°27'.

Length 50 m; draft 3 m.

Type: Pleasure craft. MMSI: 319482000.

Date/timePositionNaut miles runAvg speedWind from/ knotsBaromVisibWave heightAir tempDewpointWater temp
2017-Sep-16 01:35N 42°51' E 004°27'1 8.7
2017-Sep-16 01:24N 42°51' E 004°29'4 9.5
2017-Sep-16 00:59N 42°53' E 004°34'5 9.1
2017-Sep-16 00:28N 42°53' E 004°40'510.8
2017-Sep-15 23:59N 42°53' E 004°47'510.9
2017-Sep-15 23:30N 42°54' E 004°54'611.5
2017-Sep-15 23:00N 42°55' E 005°02'611.7
2017-Sep-15 22:30N 42°56' E 005°10'8311.3
2017-Sep-15 15:06N 43°16' E 007°01'111.7
2017-Sep-15 15:00N 43°17' E 007°02'612.5
2017-Sep-15 14:30N 43°21' E 007°08'612.4
2017-Sep-15 14:00N 43°25' E 007°14'34 1.8
2017-Sep-14 19:26N 43°49' E 007°47'0 0.0
2017-Sep-12 18:50N 43°49' E 007°47'0 0.0
2017-Sep-12 18:23N 43°49' E 007°47'0 0.0
2017-Sep-12 17:59N 43°49' E 007°47'0 0.0
2017-Sep-12 17:05N 43°49' E 007°47'0 0.0
2017-Sep-12 16:41N 43°49' E 007°47'0 0.0
2017-Sep-12 16:29N 43°49' E 007°47'0 0.0
2017-Sep-12 15:56N 43°49' E 007°47'0 0.0
2017-Sep-12 14:41N 43°49' E 007°47'0 0.0
2017-Sep-12 14:26N 43°49' E 007°47'0 0.0
2017-Sep-12 13:50N 43°49' E 007°47'0 0.0
2017-Sep-12 11:53N 43°49' E 007°47'0 0.0
2017-Sep-12 11:23N 43°49' E 007°47'0 0.0
2017-Sep-11 10:20N 43°49' E 007°47'0 0.0
2017-Sep-11 09:32N 43°49' E 007°47'45 1.1
2017-Sep-09 17:46N 43°29' E 008°43'510.2
2017-Sep-09 17:15N 43°27' E 008°49'3 9.9
2017-Sep-09 16:58N 43°25' E 008°53'510.6
2017-Sep-09 16:28N 43°23' E 008°59'611.9
2017-Sep-09 15:59N 43°20' E 009°06'712.0
2017-Sep-09 15:22N 43°16' E 009°14'511.4
2017-Sep-09 14:55N 43°13' E 009°20'25910.7
2017-Sep-08 14:41N 40°43' E 014°03'511.5
2017-Sep-08 14:16N 40°45' E 014°09'311.4
2017-Sep-08 14:00N 40°47' E 014°12'13 5.3
2017-Sep-08 11:33N 40°43' E 014°28'3 0.9
2017-Sep-08 08:52N 40°42' E 014°26'411.4
2017-Sep-08 08:30N 40°40' E 014°21'8011.0
2017-Sep-08 01:12N 39°26' E 014°59'3311.4
2017-Sep-07 22:16N 38°56' E 015°18'3611.5
2017-Sep-07 19:05N 38°23' E 015°39'411.5
2017-Sep-07 18:47N 38°20' E 015°41'311.1
2017-Sep-07 18:30N 38°17' E 015°42'510.8
2017-Sep-07 18:00N 38°13' E 015°37'712.6
2017-Sep-07 17:29N 38°07' E 015°36'611.5
2017-Sep-07 17:00N 38°01' E 015°36'610.9
2017-Sep-07 16:29N 37°56' E 015°38'1011.6
2017-Sep-07 15:36N 37°51' E 015°49'35210.4
2017-Sep-06 05:51N 37°52' E 023°14'513.0
2017-Sep-06 05:30N 37°51' E 023°20'612.0
2017-Sep-06 05:00N 37°51' E 023°27'612.7
2017-Sep-06 04:30N 37°53' E 023°35'510.7
2017-Sep-06 04:00N 37°56' E 023°41'0 0.7
2017-Sep-06 03:29N 37°56' E 023°41'0 0.0
2017-Sep-06 02:59N 37°56' E 023°41'0 0.0
2017-Sep-06 02:29N 37°56' E 023°41'0 0.0
2017-Sep-06 02:00N 37°56' E 023°41'  
Track history (hours):
 
Tides and Currents Weather Stations Pressure Air Temp Water Temp Dewpoint Dewpoint Depression Visibility Wind Speed Wind Dir Waves Ship Positions

Blu 470

Last reported at 2017-Sep-16 01:35 UTC. Time now 2017-Sep-21 09:05 UTC.
Position N 42°51' E 004°27'.

Length 50 m; draft 3 m.

Type: Pleasure craft. MMSI: 319482000.

Date/timePositionNaut miles runAvg speedWind from/ knotsBaromVisibWave heightAir tempDewpointWater temp
2017-Sep-16 01:35N 42°51' E 004°27'1 8.7
2017-Sep-16 01:24N 42°51' E 004°29'4 9.5
2017-Sep-16 00:59N 42°53' E 004°34'5 9.1
2017-Sep-16 00:28N 42°53' E 004°40'510.8
2017-Sep-15 23:59N 42°53' E 004°47'510.9
2017-Sep-15 23:30N 42°54' E 004°54'611.5
2017-Sep-15 23:00N 42°55' E 005°02'611.7
2017-Sep-15 22:30N 42°56' E 005°10'8311.3
2017-Sep-15 15:06N 43°16' E 007°01'111.7
2017-Sep-15 15:00N 43°17' E 007°02'612.5
2017-Sep-15 14:30N 43°21' E 007°08'612.4
2017-Sep-15 14:00N 43°25' E 007°14'34 1.8
2017-Sep-14 19:26N 43°49' E 007°47'0 0.0
2017-Sep-12 18:50N 43°49' E 007°47'0 0.0
2017-Sep-12 18:23N 43°49' E 007°47'0 0.0
2017-Sep-12 17:59N 43°49' E 007°47'0 0.0
2017-Sep-12 17:05N 43°49' E 007°47'0 0.0
2017-Sep-12 16:41N 43°49' E 007°47'0 0.0
2017-Sep-12 16:29N 43°49' E 007°47'0 0.0
2017-Sep-12 15:56N 43°49' E 007°47'0 0.0
2017-Sep-12 14:41N 43°49' E 007°47'0 0.0
2017-Sep-12 14:26N 43°49' E 007°47'0 0.0
2017-Sep-12 13:50N 43°49' E 007°47'0 0.0
2017-Sep-12 11:53N 43°49' E 007°47'0 0.0
2017-Sep-12 11:23N 43°49' E 007°47'0 0.0
2017-Sep-11 10:20N 43°49' E 007°47'0 0.0
2017-Sep-11 09:32N 43°49' E 007°47'45 1.1
2017-Sep-09 17:46N 43°29' E 008°43'510.2
2017-Sep-09 17:15N 43°27' E 008°49'3 9.9
2017-Sep-09 16:58N 43°25' E 008°53'510.6
2017-Sep-09 16:28N 43°23' E 008°59'611.9
2017-Sep-09 15:59N 43°20' E 009°06'712.0
2017-Sep-09 15:22N 43°16' E 009°14'511.4
2017-Sep-09 14:55N 43°13' E 009°20'25910.7
2017-Sep-08 14:41N 40°43' E 014°03'511.5
2017-Sep-08 14:16N 40°45' E 014°09'311.4
2017-Sep-08 14:00N 40°47' E 014°12'13 5.3
2017-Sep-08 11:33N 40°43' E 014°28'3 0.9
2017-Sep-08 08:52N 40°42' E 014°26'411.4
2017-Sep-08 08:30N 40°40' E 014°21'8011.0
2017-Sep-08 01:12N 39°26' E 014°59'3311.4
2017-Sep-07 22:16N 38°56' E 015°18'3611.5
2017-Sep-07 19:05N 38°23' E 015°39'411.5
2017-Sep-07 18:47N 38°20' E 015°41'311.1
2017-Sep-07 18:30N 38°17' E 015°42'510.8
2017-Sep-07 18:00N 38°13' E 015°37'712.6
2017-Sep-07 17:29N 38°07' E 015°36'611.5
2017-Sep-07 17:00N 38°01' E 015°36'610.9
2017-Sep-07 16:29N 37°56' E 015°38'1011.6
2017-Sep-07 15:36N 37°51' E 015°49'35210.4
2017-Sep-06 05:51N 37°52' E 023°14'513.0
2017-Sep-06 05:30N 37°51' E 023°20'612.0
2017-Sep-06 05:00N 37°51' E 023°27'612.7
2017-Sep-06 04:30N 37°53' E 023°35'510.7
2017-Sep-06 04:00N 37°56' E 023°41'0 0.7
2017-Sep-06 03:29N 37°56' E 023°41'0 0.0
2017-Sep-06 02:59N 37°56' E 023°41'0 0.0
2017-Sep-06 02:29N 37°56' E 023°41'0 0.0
2017-Sep-06 02:00N 37°56' E 023°41'  

Dump ship's entire track history